Terminal Aerodrome Forecast
Issued by NWS Columbia, SC

Home | Current Version | Previous Version | Text Only | Print | Product List | Glossary On
Versions: 1 2 3 4 5 6 7 8 9 10 11 12 13 14 15 16 17 18 19 20 21 22 23 24 25 26 27 28 29 30
000
FTUS42 KCAE 250500 RRA
TAFCAE
TAF
KCAE 250546Z 2506/2606 28014G22KT P6SM SCT025 BKN045 OVC100
      TEMPO 2506/2509 -SHRA
     FM250900 27012G17KT P6SM BKN100 OVC250
     FM251400 28010G18KT P6SM FEW200
     FM252100 28008KT P6SM SKC
     FM252300 VRB03KT P6SM SKC=

USA.gov is the U.S. government's official web portal to all federal, state and local government web resources and services.